createdAt,value
2022-12-09T00:01:28.731Z,2.35
2022-12-09T00:03:56.054Z,2.72
2022-12-09T00:06:24.806Z,2.85
2022-12-09T00:08:51.958Z,2.63
2022-12-09T00:11:19.308Z,3.22
2022-12-09T00:13:53.285Z,3.15
2022-12-09T00:16:20.131Z,3.25
2022-12-09T00:18:47.459Z,2.38
2022-12-09T00:21:25.184Z,2.80
2022-12-09T00:23:53.136Z,2.60
2022-12-09T00:26:20.604Z,3.50
2022-12-09T00:28:48.120Z,3.50
2022-12-09T00:31:17.416Z,2.33
2022-12-09T00:33:44.524Z,2.60
2022-12-09T00:36:13.121Z,2.33
2022-12-09T00:38:39.934Z,3.65
2022-12-09T00:41:06.988Z,3.38
2022-12-09T00:43:33.825Z,3.22
2022-12-09T00:46:00.837Z,2.95
2022-12-09T00:48:27.857Z,3.08
2022-12-09T00:50:54.962Z,3.08
2022-12-09T00:53:21.915Z,2.35
2022-12-09T00:55:48.687Z,2.63
2022-12-09T00:58:16.066Z,2.50
2022-12-09T01:00:42.982Z,4.10
2022-12-09T01:03:16.914Z,2.63
2022-12-09T01:05:46.460Z,2.90
2022-12-09T01:08:13.514Z,4.78
2022-12-09T01:10:41.138Z,2.28
2022-12-09T01:13:08.151Z,2.50
2022-12-09T01:15:34.949Z,2.70
2022-12-09T01:18:01.858Z,3.00
2022-12-09T01:20:28.672Z,2.22
2022-12-09T01:22:55.541Z,3.10
2022-12-09T01:25:22.479Z,2.97
2022-12-09T01:27:49.189Z,2.63
2022-12-09T01:30:15.997Z,3.03
2022-12-09T01:32:42.910Z,2.70
2022-12-09T01:35:09.839Z,2.80
2022-12-09T01:37:36.822Z,3.50
2022-12-09T01:40:09.366Z,3.25
2022-12-09T01:42:36.343Z,1.60
2022-12-09T01:45:30.422Z,2.05
2022-12-09T01:48:01.001Z,2.08
2022-12-09T01:50:28.068Z,2.97
2022-12-09T01:52:54.826Z,1.95
2022-12-09T01:55:21.786Z,2.22
2022-12-09T01:57:48.597Z,2.45
2022-12-09T02:00:15.861Z,1.80
2022-12-09T02:02:43.919Z,2.00
2022-12-09T02:05:10.933Z,2.30
2022-12-09T02:07:38.349Z,2.40
2022-12-09T02:10:07.557Z,2.20
2022-12-09T02:12:46.655Z,4.13
2022-12-09T02:15:20.883Z,2.20
2022-12-09T02:17:54.768Z,2.28
2022-12-09T02:20:48.424Z,2.90
2022-12-09T02:23:23.654Z,3.40
2022-12-09T02:25:56.226Z,2.60
2022-12-09T02:28:38.410Z,2.75
2022-12-09T02:31:27.309Z,2.45
2022-12-09T02:34:13.116Z,2.58
2022-12-09T02:37:16.503Z,2.70
2022-12-09T02:39:44.711Z,2.97
2022-12-09T02:42:14.148Z,2.38
2022-12-09T02:44:40.873Z,3.22
2022-12-09T02:47:08.643Z,2.20
2022-12-09T02:49:35.554Z,2.67
2022-12-09T02:52:06.395Z,2.53
2022-12-09T02:54:33.280Z,3.38
2022-12-09T02:57:08.045Z,3.72
2022-12-09T02:59:35.035Z,3.00
2022-12-09T03:02:12.268Z,3.30
2022-12-09T03:04:40.631Z,5.22
2022-12-09T03:07:32.276Z,2.80
2022-12-09T03:10:07.976Z,3.42
2022-12-09T03:12:35.028Z,2.47
2022-12-09T03:15:02.669Z,5.45
2022-12-09T03:17:34.388Z,2.70
2022-12-09T03:20:16.042Z,3.50
2022-12-09T03:22:43.988Z,3.30
2022-12-09T03:25:21.431Z,5.50
2022-12-09T03:27:53.660Z,7.28
2022-12-09T03:30:20.557Z,3.30
2022-12-09T03:32:47.433Z,4.95
2022-12-09T03:35:41.626Z,2.53
2022-12-09T03:38:10.254Z,3.05
2022-12-09T03:40:37.011Z,3.40
2022-12-09T03:43:27.804Z,2.40
2022-12-09T03:45:55.532Z,2.92
2022-12-09T03:48:22.822Z,4.40
2022-12-09T03:51:10.568Z,2.47
2022-12-09T03:53:56.476Z,2.47
2022-12-09T03:56:32.283Z,3.15
2022-12-09T03:58:59.261Z,4.45
2022-12-09T04:01:26.097Z,2.75
2022-12-09T04:03:53.563Z,3.30
2022-12-09T04:06:20.865Z,2.67
2022-12-09T04:08:47.969Z,2.88
2022-12-09T04:11:15.172Z,2.80
2022-12-09T04:13:41.944Z,2.67
2022-12-09T04:16:10.114Z,3.10
2022-12-09T04:18:37.229Z,2.63
2022-12-09T04:21:09.115Z,2.53
2022-12-09T04:23:41.034Z,4.15
2022-12-09T04:26:13.523Z,3.20
2022-12-09T04:28:40.488Z,3.40
2022-12-09T04:31:14.074Z,3.47
2022-12-09T04:33:41.685Z,3.30
2022-12-09T04:36:10.298Z,5.68
2022-12-09T04:38:37.137Z,2.78
2022-12-09T04:41:04.169Z,2.90
2022-12-09T04:43:30.879Z,4.38
2022-12-09T04:46:01.814Z,4.13
2022-12-09T04:48:29.189Z,4.80
2022-12-09T04:50:56.171Z,4.40
2022-12-09T04:53:23.297Z,5.38
2022-12-09T04:55:50.231Z,7.30
2022-12-09T04:58:17.038Z,5.65
2022-12-09T05:00:43.831Z,3.50
2022-12-09T05:03:10.850Z,4.78
2022-12-09T05:05:40.911Z,3.83
2022-12-09T05:08:08.236Z,3.50
2022-12-09T05:10:35.472Z,4.05
2022-12-09T05:13:02.639Z,3.20
2022-12-09T05:15:29.730Z,3.85
2022-12-09T05:17:58.839Z,3.72
2022-12-09T05:20:29.799Z,3.90
2022-12-09T05:22:56.787Z,3.80
2022-12-09T05:25:24.001Z,4.15
2022-12-09T05:27:50.911Z,5.93
2022-12-09T05:30:17.979Z,3.22
2022-12-09T05:32:44.934Z,4.40
2022-12-09T05:35:12.078Z,3.80
2022-12-09T05:37:39.080Z,3.88
2022-12-09T05:40:07.121Z,5.50
2022-12-09T05:42:40.889Z,5.38
2022-12-09T05:45:08.999Z,5.00
2022-12-09T05:47:36.140Z,4.22
2022-12-09T05:50:11.370Z,4.00
2022-12-09T05:52:39.146Z,4.13
2022-12-09T05:55:07.137Z,4.82
2022-12-09T05:57:34.413Z,3.97
2022-12-09T06:00:01.369Z,3.75
2022-12-09T06:02:28.551Z,4.70
2022-12-09T06:04:56.173Z,3.63
2022-12-09T06:07:23.511Z,3.65
2022-12-09T06:09:50.388Z,3.92
2022-12-09T06:12:17.625Z,4.32
2022-12-09T06:14:44.834Z,3.50
2022-12-09T06:17:11.912Z,3.88
2022-12-09T06:19:39.213Z,3.42
2022-12-09T06:22:06.122Z,3.58
2022-12-09T06:24:33.053Z,3.15
2022-12-09T06:27:00.182Z,6.00
2022-12-09T06:29:27.099Z,4.50
2022-12-09T06:31:54.309Z,3.05
2022-12-09T06:34:21.586Z,3.28
2022-12-09T06:36:48.631Z,2.30
2022-12-09T06:39:15.426Z,2.90
2022-12-09T06:41:42.965Z,2.30
2022-12-09T06:44:17.186Z,2.92
2022-12-09T06:46:50.373Z,3.08
2022-12-09T06:49:17.552Z,4.18
2022-12-09T06:51:44.920Z,3.20
2022-12-09T06:54:11.764Z,2.65
2022-12-09T06:56:38.557Z,8.30
2022-12-09T06:59:11.843Z,3.05
2022-12-09T07:01:39.069Z,3.38
2022-12-09T07:04:06.736Z,3.47
2022-12-09T07:06:38.531Z,3.47
2022-12-09T07:09:13.235Z,2.80
2022-12-09T07:11:42.382Z,3.38
2022-12-09T07:14:09.998Z,3.30
2022-12-09T07:16:36.991Z,3.08
2022-12-09T07:19:04.472Z,3.38
2022-12-09T07:21:31.558Z,3.20
2022-12-09T07:24:02.253Z,3.30
2022-12-09T07:26:33.533Z,3.70
2022-12-09T07:29:04.100Z,2.80
2022-12-09T07:31:31.761Z,4.97
2022-12-09T07:33:58.906Z,3.38
2022-12-09T07:36:27.875Z,3.33
2022-12-09T07:38:56.457Z,5.40
2022-12-09T07:41:23.615Z,5.75
2022-12-09T07:43:50.507Z,4.35
2022-12-09T07:46:19.203Z,4.13
2022-12-09T07:48:46.432Z,3.95
2022-12-09T07:51:13.502Z,5.30
2022-12-09T07:53:40.560Z,4.40
2022-12-09T07:56:11.812Z,4.22
2022-12-09T07:58:39.010Z,6.75
2022-12-09T08:01:10.310Z,6.30
2022-12-09T08:03:37.441Z,3.65
2022-12-09T08:06:04.951Z,5.10
2022-12-09T08:08:32.210Z,3.55
2022-12-09T08:11:11.069Z,4.13
2022-12-09T08:13:38.492Z,3.83
2022-12-09T08:16:06.876Z,3.03
2022-12-09T08:18:34.271Z,3.75
2022-12-09T08:21:04.645Z,3.55
2022-12-09T08:23:31.584Z,3.33
2022-12-09T08:25:58.702Z,3.50
2022-12-09T08:28:25.650Z,4.07
2022-12-09T08:30:52.980Z,4.32
2022-12-09T08:33:20.588Z,3.80
2022-12-09T08:35:47.609Z,4.22
2022-12-09T08:38:17.282Z,4.53
2022-12-09T08:40:44.408Z,3.10
2022-12-09T08:43:11.487Z,3.90
2022-12-09T08:45:39.435Z,3.10
2022-12-09T08:48:07.208Z,3.88
2022-12-09T08:50:34.858Z,3.28
2022-12-09T08:53:01.822Z,3.50
2022-12-09T08:55:28.730Z,3.42
2022-12-09T08:57:56.265Z,4.00
2022-12-09T09:00:23.348Z,7.43
2022-12-09T09:02:50.911Z,4.10
2022-12-09T09:05:17.942Z,3.78
2022-12-09T09:07:45.778Z,3.97
2022-12-09T09:10:13.357Z,5.80
2022-12-09T09:12:43.500Z,4.68
2022-12-09T09:15:11.617Z,4.15
2022-12-09T09:17:38.766Z,3.35
2022-12-09T09:20:07.780Z,3.55
2022-12-09T09:22:35.315Z,3.50
2022-12-09T09:25:02.400Z,3.45
2022-12-09T09:27:29.252Z,2.75
2022-12-09T09:29:56.891Z,2.90
2022-12-09T09:32:24.086Z,2.92
2022-12-09T09:34:52.264Z,2.63
2022-12-09T09:37:19.573Z,3.10
2022-12-09T09:39:46.600Z,3.22
2022-12-09T09:42:18.332Z,2.55
2022-12-09T09:44:46.262Z,3.38
2022-12-09T09:47:15.185Z,88.53
2022-12-09T09:49:53.519Z,189.27
2022-12-09T09:52:22.564Z,125.18
2022-12-09T09:54:49.541Z,83.10
2022-12-09T09:57:43.797Z,57.28
2022-12-09T10:00:22.857Z,39.35
2022-12-09T10:02:53.500Z,23.75
2022-12-09T10:05:26.416Z,16.23
2022-12-09T10:08:17.316Z,13.48
2022-12-09T10:10:49.434Z,5.72
2022-12-09T10:13:32.402Z,7.40
2022-12-09T10:16:25.143Z,4.53
2022-12-09T10:19:08.907Z,5.70
2022-12-09T10:21:46.780Z,3.92
2022-12-09T10:24:39.258Z,5.30
2022-12-09T10:27:30.581Z,3.80
2022-12-09T10:30:02.551Z,4.65
2022-12-09T10:32:31.645Z,3.95
2022-12-09T10:34:59.162Z,7.05
2022-12-09T10:37:36.886Z,3.50
2022-12-09T10:40:12.095Z,4.40
2022-12-09T10:43:07.261Z,3.90
2022-12-09T10:46:07.935Z,3.20
2022-12-09T10:48:37.611Z,3.38
2022-12-09T10:51:07.426Z,3.38
2022-12-09T10:53:34.753Z,3.00
2022-12-09T10:56:02.539Z,3.45
2022-12-09T10:58:30.498Z,3.65
2022-12-09T11:01:05.215Z,3.03
2022-12-09T11:03:40.659Z,2.85
2022-12-09T11:06:29.707Z,2.63
2022-12-09T11:08:59.105Z,2.72
2022-12-09T11:11:39.595Z,2.83
2022-12-09T11:14:23.105Z,4.60
2022-12-09T11:16:56.399Z,4.18
2022-12-09T11:19:37.009Z,2.90
2022-12-09T11:22:39.176Z,3.80
2022-12-09T11:25:13.078Z,4.82
2022-12-09T11:27:41.483Z,2.72
2022-12-09T11:30:19.899Z,2.90
2022-12-09T11:33:05.440Z,3.15
2022-12-09T11:35:39.135Z,2.83
2022-12-09T11:38:31.080Z,4.65
2022-12-09T11:41:15.103Z,3.13
2022-12-09T11:43:43.015Z,3.03
2022-12-09T11:46:12.729Z,2.90
2022-12-09T11:48:55.028Z,2.55
2022-12-09T11:51:29.978Z,3.33
2022-12-09T11:54:12.451Z,2.75
2022-12-09T11:56:39.241Z,4.53
2022-12-09T11:59:18.085Z,2.70
2022-12-09T12:01:50.558Z,3.45
2022-12-09T12:04:21.748Z,4.32
2022-12-09T12:06:49.326Z,3.35
2022-12-09T12:09:26.592Z,5.72
2022-12-09T12:12:09.869Z,3.78
2022-12-09T12:14:38.132Z,3.78
2022-12-09T12:17:22.183Z,3.65
2022-12-09T12:19:50.683Z,4.55
2022-12-09T12:22:20.410Z,3.95
2022-12-09T12:24:52.964Z,4.72
2022-12-09T12:27:22.577Z,3.30
2022-12-09T12:30:14.440Z,3.97
2022-12-09T12:33:59.817Z,3.17
2022-12-09T12:36:02.604Z,4.25
2022-12-09T12:38:40.875Z,3.80
2022-12-09T12:41:15.657Z,3.45
2022-12-09T12:44:06.946Z,4.07
2022-12-09T12:46:57.973Z,4.00
2022-12-09T12:49:36.162Z,3.50
2022-12-09T12:52:55.702Z,4.43
2022-12-09T12:55:38.759Z,5.40
2022-12-09T12:58:29.494Z,2.95
2022-12-09T13:01:05.361Z,3.67
2022-12-09T13:03:43.530Z,3.25
2022-12-09T13:06:12.320Z,3.45
2022-12-09T13:08:46.773Z,5.20
2022-12-09T13:11:20.067Z,2.80
2022-12-09T13:14:02.364Z,3.45
2022-12-09T13:16:35.257Z,2.55
2022-12-09T13:19:07.426Z,2.78
2022-12-09T13:21:34.704Z,2.35
2022-12-09T13:24:27.148Z,2.30
2022-12-09T13:27:15.316Z,2.15
2022-12-09T13:29:59.560Z,2.42
2022-12-09T13:32:56.644Z,2.20
2022-12-09T13:35:28.113Z,4.60
2022-12-09T13:37:56.020Z,2.00
2022-12-09T13:40:36.582Z,1.80
2022-12-09T13:43:03.266Z,1.95
2022-12-09T13:45:37.642Z,2.38
2022-12-09T13:48:30.306Z,2.55
2022-12-09T13:50:59.539Z,4.32
2022-12-09T13:53:31.007Z,2.60
2022-12-09T13:56:24.020Z,3.87
2022-12-09T13:59:12.361Z,2.72
2022-12-09T14:01:43.720Z,2.60
2022-12-09T14:04:21.730Z,3.40
2022-12-09T14:06:51.283Z,3.10
2022-12-09T14:09:42.151Z,3.28
2022-12-09T14:12:13.510Z,2.60
2022-12-09T14:14:48.509Z,2.40
2022-12-09T14:17:25.662Z,2.60
2022-12-09T14:19:56.641Z,2.70
2022-12-09T14:22:23.525Z,4.15
2022-12-09T14:24:53.222Z,2.72
2022-12-09T14:27:24.011Z,3.15
2022-12-09T14:29:51.918Z,2.85
2022-12-09T14:32:37.846Z,2.58
2022-12-09T14:35:10.389Z,2.97
2022-12-09T14:38:00.496Z,2.50
2022-12-09T14:40:53.646Z,3.10
2022-12-09T14:43:51.325Z,3.08
2022-12-09T14:46:25.424Z,3.78
2022-12-09T14:49:14.224Z,3.07
2022-12-09T14:52:01.203Z,2.97
2022-12-09T14:54:33.026Z,3.00
2022-12-09T14:57:01.392Z,3.38
2022-12-09T14:59:29.767Z,2.97
2022-12-09T15:01:58.555Z,4.13
2022-12-09T15:04:46.207Z,4.97
2022-12-09T15:07:18.105Z,3.90
2022-12-09T15:10:04.172Z,4.88
2022-12-09T15:12:41.985Z,3.55
2022-12-09T15:15:29.466Z,3.80
2022-12-09T15:17:58.445Z,3.75
2022-12-09T15:20:36.299Z,6.45
2022-12-09T15:23:07.082Z,3.78
2022-12-09T15:25:42.507Z,4.20
2022-12-09T15:28:36.353Z,7.05
2022-12-09T15:31:13.730Z,4.97
2022-12-09T15:33:41.938Z,4.57
2022-12-09T15:36:13.263Z,4.05
2022-12-09T15:38:49.376Z,4.80
2022-12-09T15:41:34.565Z,6.15
2022-12-09T15:44:02.557Z,6.50
2022-12-09T15:46:29.472Z,6.28
2022-12-09T15:48:57.325Z,7.07
2022-12-09T15:51:26.362Z,6.72
2022-12-09T15:54:07.014Z,7.22
2022-12-09T15:56:35.491Z,6.47
2022-12-09T15:59:12.488Z,4.78
2022-12-09T16:01:39.234Z,7.90
2022-12-09T16:04:06.411Z,6.20
2022-12-09T16:06:36.984Z,4.65
2022-12-09T16:09:13.924Z,4.60
2022-12-09T16:11:42.725Z,5.13
2022-12-09T16:14:09.676Z,5.57
2022-12-09T16:16:50.942Z,4.93
2022-12-09T16:19:40.574Z,4.80
2022-12-09T16:22:28.960Z,5.90
2022-12-09T16:25:17.591Z,6.63
2022-12-09T16:27:46.060Z,7.35
2022-12-09T16:30:23.511Z,7.20
2022-12-09T16:33:00.965Z,6.32
2022-12-09T16:35:35.627Z,5.35
2022-12-09T16:38:11.586Z,5.13
2022-12-09T16:40:44.420Z,4.95
2022-12-09T16:43:21.868Z,8.23
2022-12-09T16:45:49.601Z,5.10
2022-12-09T16:48:17.297Z,6.28
2022-12-09T16:50:46.675Z,5.10
2022-12-09T16:53:24.137Z,8.25
2022-12-09T16:55:53.171Z,7.40
2022-12-09T16:58:20.017Z,6.90
2022-12-09T17:00:46.953Z,6.18
2022-12-09T17:03:20.068Z,14.73
2022-12-09T17:05:48.111Z,8.68
2022-12-09T17:08:15.037Z,10.98
2022-12-09T17:10:41.795Z,11.32
2022-12-09T17:13:08.566Z,9.60
2022-12-09T17:15:35.367Z,9.70
2022-12-09T17:18:02.129Z,11.35
2022-12-09T17:20:28.889Z,8.77
2022-12-09T17:22:55.683Z,8.60
2022-12-09T17:25:22.437Z,8.57
2022-12-09T17:27:49.102Z,4.32
2022-12-09T17:30:16.015Z,4.65
2022-12-09T17:32:42.840Z,5.05
2022-12-09T17:35:12.836Z,4.80
2022-12-09T17:37:39.736Z,3.30
2022-12-09T17:40:07.144Z,3.63
2022-12-09T17:42:34.036Z,4.05
2022-12-09T17:45:00.868Z,4.88
2022-12-09T17:47:28.658Z,3.72
2022-12-09T17:49:55.771Z,3.40
2022-12-09T17:52:22.461Z,4.30
2022-12-09T17:54:49.255Z,3.25
2022-12-09T17:57:15.916Z,3.05
2022-12-09T17:59:42.678Z,3.03
2022-12-09T18:02:10.847Z,3.58
2022-12-09T18:04:37.668Z,2.72
2022-12-09T18:07:04.683Z,2.38
2022-12-09T18:09:31.442Z,2.38
2022-12-09T18:11:58.196Z,2.58
2022-12-09T18:14:25.510Z,2.30
2022-12-09T18:16:52.290Z,2.28
2022-12-09T18:19:20.825Z,2.13
2022-12-09T18:21:47.649Z,2.30
2022-12-09T18:24:14.412Z,1.77
2022-12-09T18:26:42.147Z,2.38
2022-12-09T18:29:09.576Z,2.47
2022-12-09T18:31:36.318Z,3.47
2022-12-09T18:34:03.025Z,2.53
2022-12-09T18:36:30.526Z,2.38
2022-12-09T18:39:00.129Z,2.05
2022-12-09T18:41:29.235Z,2.42
2022-12-09T18:43:56.818Z,2.00
2022-12-09T18:46:34.494Z,2.58
2022-12-09T18:49:13.535Z,2.20
2022-12-09T18:51:43.750Z,2.67
2022-12-09T18:54:14.538Z,2.30
2022-12-09T18:56:41.236Z,2.20
2022-12-09T18:59:11.441Z,2.50
2022-12-09T19:01:40.761Z,2.53
2022-12-09T19:04:11.596Z,2.45
2022-12-09T19:06:39.237Z,2.20
2022-12-09T19:09:08.060Z,2.50
2022-12-09T19:11:36.427Z,2.40
2022-12-09T19:14:04.046Z,2.85
2022-12-09T19:16:31.114Z,3.65
2022-12-09T19:18:59.664Z,3.45
2022-12-09T19:21:28.220Z,4.03
2022-12-09T19:23:55.148Z,3.75
2022-12-09T19:26:41.598Z,5.50
2022-12-09T19:29:08.708Z,3.65
2022-12-09T19:31:41.052Z,4.45
2022-12-09T19:34:14.083Z,4.15
2022-12-09T19:36:40.846Z,3.22
2022-12-09T19:39:11.059Z,3.88
2022-12-09T19:41:38.004Z,3.70
2022-12-09T19:44:04.974Z,3.10
2022-12-09T19:46:31.992Z,3.60
2022-12-09T19:48:58.806Z,4.45
2022-12-09T19:51:26.241Z,3.28
2022-12-09T19:53:53.988Z,3.35
2022-12-09T19:56:20.842Z,3.20
2022-12-09T19:58:47.761Z,3.20
2022-12-09T20:01:22.924Z,3.33
2022-12-09T20:04:13.902Z,4.18
2022-12-09T20:06:51.137Z,3.78
2022-12-09T20:09:24.367Z,3.05
2022-12-09T20:11:52.695Z,3.00
2022-12-09T20:14:19.559Z,3.28
2022-12-09T20:16:46.211Z,2.88
2022-12-09T20:19:12.960Z,4.50
2022-12-09T20:21:40.553Z,3.85
2022-12-09T20:24:08.135Z,3.90
2022-12-09T20:26:35.832Z,3.75
2022-12-09T20:29:06.035Z,5.10
2022-12-09T20:31:33.749Z,3.50
2022-12-09T20:34:03.280Z,3.33
2022-12-09T20:36:31.920Z,3.08
2022-12-09T20:39:00.540Z,3.00
2022-12-09T20:41:28.217Z,2.83
2022-12-09T20:43:57.465Z,3.60
2022-12-09T20:46:28.904Z,2.90
2022-12-09T20:48:55.855Z,3.13
2022-12-09T20:51:33.290Z,3.50
2022-12-09T20:54:00.249Z,3.30
2022-12-09T20:56:28.079Z,2.78
2022-12-09T20:58:55.041Z,3.60
2022-12-09T21:01:23.415Z,2.70
2022-12-09T21:03:50.851Z,3.10
2022-12-09T21:06:18.900Z,2.75
2022-12-09T21:08:45.687Z,2.85
2022-12-09T21:11:17.691Z,3.05
2022-12-09T21:13:49.077Z,2.17
2022-12-09T21:16:20.052Z,3.28
2022-12-09T21:18:47.843Z,2.60
2022-12-09T21:21:14.855Z,3.22
2022-12-09T21:23:41.724Z,2.70
2022-12-09T21:26:13.624Z,2.55
2022-12-09T21:28:40.824Z,2.85
2022-12-09T21:31:12.135Z,3.55
2022-12-09T21:33:39.323Z,3.10
2022-12-09T21:36:08.012Z,3.20
2022-12-09T21:38:35.612Z,2.85
2022-12-09T21:41:07.241Z,3.75
2022-12-09T21:43:34.443Z,3.88
2022-12-09T21:46:05.251Z,2.30
2022-12-09T21:48:32.261Z,3.00
2022-12-09T21:50:59.843Z,3.08
2022-12-09T21:53:26.571Z,3.60
2022-12-09T21:55:53.504Z,3.33
2022-12-09T21:58:20.343Z,3.53
2022-12-09T22:00:47.299Z,3.10
2022-12-09T22:03:14.084Z,3.72
2022-12-09T22:05:40.875Z,2.97
2022-12-09T22:08:07.842Z,3.03
2022-12-09T22:10:37.462Z,2.45
2022-12-09T22:13:04.314Z,2.72
2022-12-09T22:15:31.292Z,3.33
2022-12-09T22:17:58.086Z,3.90
2022-12-09T22:23:11.724Z,2.85
2022-12-09T22:25:39.091Z,3.70
2022-12-09T22:28:05.792Z,3.00
2022-12-09T22:30:34.829Z,3.25
2022-12-09T22:33:01.543Z,4.20
2022-12-09T22:35:28.335Z,5.38
2022-12-09T22:37:58.074Z,3.22
2022-12-09T22:40:25.914Z,3.42
2022-12-09T22:42:52.664Z,4.25
2022-12-09T22:45:19.423Z,4.07
2022-12-09T22:47:46.215Z,3.17
2022-12-09T22:50:13.039Z,3.95
2022-12-09T22:52:39.771Z,3.85
2022-12-09T22:55:06.825Z,3.83
2022-12-09T22:57:33.494Z,4.47
2022-12-09T23:00:00.231Z,4.05
2022-12-09T23:02:27.147Z,4.70
2022-12-09T23:04:53.942Z,4.82
2022-12-09T23:07:20.648Z,4.40
2022-12-09T23:09:47.345Z,4.47
2022-12-09T23:12:14.147Z,5.30
2022-12-09T23:14:40.898Z,4.15
2022-12-09T23:17:07.675Z,4.38
2022-12-09T23:19:35.056Z,4.95
2022-12-09T23:22:01.873Z,3.92
2022-12-09T23:24:28.658Z,4.40
2022-12-09T23:26:56.134Z,5.25
2022-12-09T23:29:22.972Z,4.60
2022-12-09T23:31:49.758Z,5.28
2022-12-09T23:34:16.653Z,4.70
2022-12-09T23:36:43.732Z,4.63
2022-12-09T23:39:16.868Z,4.72
2022-12-09T23:41:44.083Z,4.65
2022-12-09T23:44:12.639Z,4.45
2022-12-09T23:46:39.549Z,3.85
2022-12-09T23:49:07.512Z,4.53
2022-12-09T23:51:35.324Z,3.53
2022-12-09T23:54:03.847Z,4.85
2022-12-09T23:56:31.780Z,5.75
2022-12-09T23:59:00.256Z,4.72
